Plumerville, Arkansas
Current Conditions -  °F | °C
As of 4:53 AM on Thursday 23 Oct 2014 (Local Time) from KRUE Reporting Station
Clear Clear  
Wind Chill: 49°   Ceiling: Unl
Heat Index: 49°   Visibility: 10mi
Dew Point: 46°   Wind: 3mph
Humidity: 90%   Direction: 250°WSW
Pressure: 30.19"   Gusts: NA
Location:  35.16°N, 92.64°W
Report Text: KRUE 230953Z AUTO 25003KT 10SM CLR 09/08 A3019 RMK AO2 SLP218 T00940078 $
Loading
Personal Weather Stations






























Interactive Weather Map
Tropical Storm Tracking
New forecast layout! Learn more

10-Day Weather Forecast

Advertisements
Track Severe Weather on mobile